createdAt,value
2017-11-11T00:00:46.649Z,8.00
2017-11-11T00:03:14.094Z,7.87
2017-11-11T00:05:41.531Z,8.03
2017-11-11T00:08:08.974Z,7.40
2017-11-11T00:10:36.410Z,8.43
2017-11-11T00:13:04.623Z,9.60
2017-11-11T00:15:32.058Z,10.10
2017-11-11T00:17:59.566Z,9.77
2017-11-11T00:20:27.018Z,9.00
2017-11-11T00:22:54.574Z,9.40
2017-11-11T00:25:22.031Z,9.40
2017-11-11T00:27:49.495Z,9.60
2017-11-11T00:30:16.934Z,10.33
2017-11-11T00:32:44.369Z,9.77
2017-11-11T00:35:11.814Z,9.87
2017-11-11T00:37:39.255Z,10.30
2017-11-11T00:40:07.470Z,9.40
2017-11-11T00:42:34.938Z,9.40
2017-11-11T00:45:02.385Z,10.87
2017-11-11T00:47:29.850Z,8.63
2017-11-11T00:49:57.454Z,8.40
2017-11-11T00:52:25.677Z,8.87
2017-11-11T00:54:53.238Z,7.97
2017-11-11T00:57:20.669Z,7.40
2017-11-11T00:59:48.114Z,7.43
2017-11-11T01:02:16.133Z,7.60
2017-11-11T01:04:44.334Z,6.73
2017-11-11T01:07:12.533Z,8.93
2017-11-11T01:09:39.983Z,8.13
2017-11-11T01:12:07.415Z,8.17
2017-11-11T01:14:35.631Z,8.33
2017-11-11T01:17:03.142Z,8.60
2017-11-11T01:19:31.355Z,9.00
2017-11-11T01:21:58.825Z,9.50
2017-11-11T01:24:26.234Z,9.77
2017-11-11T01:26:53.759Z,9.33
2017-11-11T01:29:22.006Z,8.30
2017-11-11T01:31:49.470Z,8.83
2017-11-11T01:34:16.928Z,7.90
2017-11-11T01:36:44.382Z,7.50
2017-11-11T01:39:11.814Z,8.90
2017-11-11T01:41:40.257Z,7.87
2017-11-11T01:44:08.491Z,6.57
2017-11-11T01:46:35.925Z,7.23
2017-11-11T01:49:03.366Z,6.70
2017-11-11T01:51:30.806Z,6.40
2017-11-11T01:53:58.245Z,7.70
2017-11-11T01:56:26.462Z,8.73
2017-11-11T01:58:53.911Z,9.37
2017-11-11T02:01:21.342Z,8.57
2017-11-11T02:03:49.550Z,8.80
2017-11-11T02:06:16.988Z,10.17
2017-11-11T02:08:44.426Z,7.30
2017-11-11T02:11:11.934Z,6.50
2017-11-11T02:13:39.370Z,6.20
2017-11-11T02:16:06.842Z,6.00
2017-11-11T02:18:34.282Z,6.77
2017-11-11T02:21:01.758Z,5.37
2017-11-11T02:23:29.195Z,5.70
2017-11-11T02:25:56.657Z,7.20
2017-11-11T02:28:24.118Z,7.03
2017-11-11T02:30:51.581Z,6.27
2017-11-11T02:33:19.002Z,6.83
2017-11-11T02:35:46.516Z,5.97
2017-11-11T02:38:14.038Z,8.00
2017-11-11T02:40:41.484Z,7.07
2017-11-11T02:43:08.924Z,7.70
2017-11-11T02:45:36.402Z,10.40
2017-11-11T02:48:03.942Z,8.13
2017-11-11T02:50:31.382Z,8.00
2017-11-11T02:52:58.821Z,8.93
2017-11-11T02:55:27.058Z,9.47
2017-11-11T02:57:54.498Z,8.87
2017-11-11T03:00:21.973Z,8.70
2017-11-11T03:02:49.402Z,8.17
2017-11-11T03:05:16.847Z,8.20
2017-11-11T03:07:44.307Z,8.13
2017-11-11T03:10:11.756Z,6.83
2017-11-11T03:12:39.211Z,8.47
2017-11-11T03:15:06.690Z,8.37
2017-11-11T03:17:34.121Z,8.40
2017-11-11T03:20:01.565Z,9.20
2017-11-11T03:22:29.058Z,8.77
2017-11-11T03:24:56.514Z,9.13
2017-11-11T03:27:23.979Z,9.80
2017-11-11T03:29:51.529Z,7.77
2017-11-11T03:32:18.973Z,8.33
2017-11-11T03:34:46.415Z,8.03
2017-11-11T03:37:13.869Z,10.87
2017-11-11T03:39:41.297Z,11.30
2017-11-11T03:42:09.523Z,7.93
2017-11-11T03:44:36.978Z,10.20
2017-11-11T03:47:04.418Z,9.80
2017-11-11T03:49:31.863Z,8.37
2017-11-11T03:51:59.350Z,9.50
2017-11-11T03:54:26.831Z,10.47
2017-11-11T03:56:54.359Z,11.17
2017-11-11T03:59:21.794Z,9.43
2017-11-11T04:01:49.246Z,12.63
2017-11-11T04:04:16.714Z,10.07
2017-11-11T04:06:44.182Z,9.97
2017-11-11T04:09:11.711Z,10.40
2017-11-11T04:11:39.194Z,8.00
2017-11-11T04:14:06.638Z,8.30
2017-11-11T04:16:34.097Z,8.90
2017-11-11T04:19:01.538Z,9.00
2017-11-11T04:21:28.986Z,7.63
2017-11-11T04:23:56.466Z,10.73
2017-11-11T04:26:23.910Z,7.10
2017-11-11T04:28:51.374Z,8.93
2017-11-11T04:31:18.825Z,6.63
2017-11-11T04:33:46.286Z,9.40
2017-11-11T04:36:13.732Z,7.10
2017-11-11T04:38:42.260Z,12.87
2017-11-11T04:41:10.532Z,9.07
2017-11-11T04:43:37.981Z,8.63
2017-11-11T04:46:05.421Z,6.20
2017-11-11T04:48:32.982Z,9.30
2017-11-11T04:51:00.521Z,9.13
2017-11-11T04:53:27.982Z,10.10
2017-11-11T04:55:55.438Z,5.67
2017-11-11T04:58:22.939Z,5.27
2017-11-11T05:00:51.154Z,4.90
2017-11-11T05:03:18.595Z,8.20
2017-11-11T05:05:46.082Z,5.40
2017-11-11T05:08:13.531Z,8.57
2017-11-11T05:10:40.989Z,7.53
2017-11-11T05:13:08.441Z,5.40
2017-11-11T05:15:35.890Z,5.73
2017-11-11T05:18:03.333Z,5.77
2017-11-11T05:20:30.770Z,8.20
2017-11-11T05:22:58.217Z,6.47
2017-11-11T05:25:25.721Z,5.87
2017-11-11T05:27:53.158Z,7.83
2017-11-11T05:30:20.629Z,8.33
2017-11-11T05:32:48.090Z,11.57
2017-11-11T05:35:15.534Z,5.60
2017-11-11T05:37:42.974Z,7.77
2017-11-11T05:40:10.463Z,7.27
2017-11-11T05:42:37.906Z,5.90
2017-11-11T05:45:05.366Z,6.03
2017-11-11T05:47:32.841Z,6.27
2017-11-11T05:50:00.373Z,7.90
2017-11-11T05:52:27.813Z,6.23
2017-11-11T05:54:55.286Z,10.20
2017-11-11T05:57:22.738Z,6.40
2017-11-11T05:59:50.216Z,6.80
2017-11-11T06:02:17.647Z,6.83
2017-11-11T06:04:45.114Z,9.07
2017-11-11T06:07:12.669Z,10.40
2017-11-11T06:09:40.129Z,6.33
2017-11-11T06:12:07.690Z,7.40
2017-11-11T06:14:35.142Z,5.80
2017-11-11T06:17:02.593Z,8.13
2017-11-11T06:19:30.026Z,5.97
2017-11-11T06:21:57.474Z,5.50
2017-11-11T06:24:24.909Z,7.47
2017-11-11T06:26:53.125Z,7.07
2017-11-11T06:29:20.570Z,5.67
2017-11-11T06:31:48.019Z,6.47
2017-11-11T06:34:15.471Z,6.20
2017-11-11T06:36:42.936Z,6.23
2017-11-11T06:39:10.409Z,6.50
2017-11-11T06:41:37.974Z,6.00
2017-11-11T06:44:05.562Z,7.00
2017-11-11T06:46:33.790Z,9.03
2017-11-11T06:49:01.229Z,5.57
2017-11-11T06:51:28.714Z,6.87
2017-11-11T06:53:56.154Z,6.50
2017-11-11T06:56:23.634Z,7.23
2017-11-11T06:58:51.191Z,7.90
2017-11-11T07:01:19.610Z,9.40
2017-11-11T07:03:47.114Z,6.03
2017-11-11T07:06:14.558Z,6.67
2017-11-11T07:08:42.029Z,11.07
2017-11-11T07:11:09.482Z,8.47
2017-11-11T07:13:36.934Z,7.70
2017-11-11T07:16:04.378Z,7.40
2017-11-11T07:18:31.809Z,7.27
2017-11-11T07:20:59.385Z,9.13
2017-11-11T07:23:26.814Z,6.73
2017-11-11T07:25:54.314Z,6.80
2017-11-11T07:28:21.754Z,7.50
2017-11-11T07:30:49.226Z,8.00
2017-11-11T07:33:16.665Z,6.47
2017-11-11T07:35:44.102Z,8.57
2017-11-11T07:38:11.553Z,7.03
2017-11-11T07:40:39.051Z,8.77
2017-11-11T07:43:06.619Z,7.37
2017-11-11T07:45:34.070Z,8.70
2017-11-11T07:48:01.623Z,10.00
2017-11-11T07:50:29.059Z,7.13
2017-11-11T07:52:56.530Z,6.63
2017-11-11T07:55:23.986Z,7.90
2017-11-11T07:57:51.549Z,5.53
2017-11-11T08:00:18.986Z,6.03
2017-11-11T08:02:46.430Z,6.47
2017-11-11T08:05:13.869Z,9.30
2017-11-11T08:07:41.306Z,10.07
2017-11-11T08:10:09.510Z,7.80
2017-11-11T08:12:36.989Z,8.00
2017-11-11T08:15:04.454Z,7.83
2017-11-11T08:17:31.897Z,6.60
2017-11-11T08:19:59.343Z,7.97
2017-11-11T08:22:26.786Z,6.10
2017-11-11T08:24:54.243Z,6.63
2017-11-11T08:27:21.674Z,6.03
2017-11-11T08:29:49.875Z,6.17
2017-11-11T08:32:18.226Z,5.43
2017-11-11T08:34:46.473Z,6.70
2017-11-11T08:37:13.909Z,5.97
2017-11-11T08:39:41.391Z,6.03
2017-11-11T08:42:10.526Z,5.37
2017-11-11T08:44:38.119Z,7.10
2017-11-11T08:47:05.631Z,5.87
2017-11-11T08:49:33.131Z,6.77
2017-11-11T08:52:00.604Z,6.07
2017-11-11T08:54:28.658Z,6.60
2017-11-11T08:56:56.211Z,6.90
2017-11-11T08:59:23.665Z,5.90
2017-11-11T09:01:51.130Z,6.50
2017-11-11T09:04:18.554Z,6.50
2017-11-11T09:06:46.042Z,6.10
2017-11-11T09:09:13.478Z,8.13
2017-11-11T09:11:40.938Z,6.07
2017-11-11T09:14:08.380Z,5.70
2017-11-11T09:16:35.850Z,5.33
2017-11-11T09:19:03.311Z,5.57
2017-11-11T09:21:31.730Z,4.67
2017-11-11T09:23:59.963Z,4.23
2017-11-11T09:26:27.518Z,7.93
2017-11-11T09:28:55.038Z,6.60
2017-11-11T09:31:22.515Z,6.67
2017-11-11T09:33:49.993Z,5.27
2017-11-11T09:36:17.419Z,7.10
2017-11-11T09:38:44.899Z,6.33
2017-11-11T09:41:12.337Z,5.67
2017-11-11T09:43:39.830Z,5.27
2017-11-11T09:46:07.260Z,5.00
2017-11-11T09:48:34.707Z,11.27
2017-11-11T09:51:02.171Z,6.43
2017-11-11T09:53:29.627Z,5.47
2017-11-11T09:55:57.087Z,6.43
2017-11-11T09:58:24.534Z,9.27
2017-11-11T10:00:51.971Z,7.80
2017-11-11T10:03:19.458Z,7.70
2017-11-11T10:05:46.914Z,7.07
2017-11-11T10:08:14.375Z,5.00
2017-11-11T10:10:41.926Z,7.07
2017-11-11T10:13:10.210Z,7.30
2017-11-11T10:15:37.875Z,5.20
2017-11-11T10:18:05.427Z,5.63
2017-11-11T10:20:32.873Z,5.80
2017-11-11T10:23:00.430Z,5.53
2017-11-11T10:25:28.001Z,13.37
2017-11-11T10:27:55.411Z,5.40
2017-11-11T10:30:22.894Z,13.07
2017-11-11T10:32:50.333Z,6.03
2017-11-11T10:35:17.782Z,7.33
2017-11-11T10:37:45.270Z,9.50
2017-11-11T10:40:12.818Z,5.30
2017-11-11T10:42:41.098Z,5.13
2017-11-11T10:45:08.530Z,5.43
2017-11-11T10:47:36.080Z,8.77
2017-11-11T10:50:03.511Z,8.90
2017-11-11T10:52:31.026Z,6.73
2017-11-11T10:54:58.478Z,6.13
2017-11-11T10:57:25.914Z,5.67
2017-11-11T10:59:53.370Z,4.90
2017-11-11T11:02:20.812Z,4.70
2017-11-11T11:04:48.268Z,5.03
2017-11-11T11:07:15.703Z,6.60
2017-11-11T11:09:45.740Z,5.43
2017-11-11T11:12:13.178Z,4.10
2017-11-11T11:14:40.672Z,5.20
2017-11-11T11:17:08.222Z,8.67
2017-11-11T11:19:35.661Z,6.83
2017-11-11T11:22:03.111Z,5.40
2017-11-11T11:24:30.685Z,5.87
2017-11-11T11:26:58.258Z,5.30
2017-11-11T11:29:25.694Z,7.43
2017-11-11T11:31:53.134Z,7.07
2017-11-11T11:34:20.569Z,7.10
2017-11-11T11:36:48.786Z,6.33
2017-11-11T11:39:16.247Z,6.60
2017-11-11T11:41:43.710Z,8.63
2017-11-11T11:44:11.147Z,7.10
2017-11-11T11:46:38.598Z,5.43
2017-11-11T11:49:06.037Z,6.80
2017-11-11T11:51:34.386Z,6.77
2017-11-11T11:54:02.626Z,6.50
2017-11-11T11:56:30.075Z,7.93
2017-11-11T11:58:57.534Z,5.93
2017-11-11T12:01:25.090Z,5.80
2017-11-11T12:03:52.546Z,7.37
2017-11-11T12:06:20.007Z,6.83
2017-11-11T12:08:47.482Z,6.20
2017-11-11T12:11:14.910Z,8.00
2017-11-11T12:13:42.366Z,6.10
2017-11-11T12:16:09.813Z,7.57
2017-11-11T12:18:37.254Z,6.80
2017-11-11T12:21:04.704Z,10.47
2017-11-11T12:23:32.135Z,5.47
2017-11-11T12:26:00.346Z,7.07
2017-11-11T12:28:27.783Z,5.97
2017-11-11T12:30:55.213Z,7.20
2017-11-11T12:33:23.419Z,5.90
2017-11-11T12:35:50.854Z,5.40
2017-11-11T12:38:19.063Z,6.97
2017-11-11T12:40:46.497Z,6.27
2017-11-11T12:43:13.942Z,5.87
2017-11-11T12:45:41.382Z,5.93
2017-11-11T12:48:09.602Z,10.53
2017-11-11T12:50:37.042Z,5.73
2017-11-11T12:53:04.492Z,6.00
2017-11-11T12:55:31.938Z,5.17
2017-11-11T12:57:59.386Z,6.47
2017-11-11T13:00:26.886Z,4.80
2017-11-11T13:02:54.345Z,6.00
2017-11-11T13:05:21.797Z,6.27
2017-11-11T13:07:49.281Z,6.10
2017-11-11T13:10:16.810Z,5.63
2017-11-11T13:12:44.258Z,5.13
2017-11-11T13:15:11.721Z,5.60
2017-11-11T13:17:39.178Z,4.80
2017-11-11T13:20:06.609Z,6.93
2017-11-11T13:22:34.109Z,5.47
2017-11-11T13:25:01.547Z,6.43
2017-11-11T13:27:28.989Z,5.30
2017-11-11T13:29:56.431Z,4.37
2017-11-11T13:32:33.875Z,4.57
2017-11-11T13:35:01.314Z,4.33
2017-11-11T13:37:28.782Z,5.93
2017-11-11T13:39:56.383Z,4.30
2017-11-11T13:42:23.875Z,4.60
2017-11-11T13:44:51.313Z,4.83
2017-11-11T13:47:18.751Z,4.40
2017-11-11T13:49:46.538Z,4.97
2017-11-11T13:52:13.978Z,4.60
2017-11-11T13:54:41.463Z,3.57
2017-11-11T13:57:08.911Z,3.63
2017-11-11T13:59:36.575Z,4.30
2017-11-11T14:02:04.006Z,4.40
2017-11-11T14:04:31.567Z,3.50
2017-11-11T14:06:59.011Z,3.67
2017-11-11T14:09:26.567Z,3.00
2017-11-11T14:11:54.001Z,2.57
2017-11-11T14:14:21.450Z,2.63
2017-11-11T14:16:49.654Z,3.50
2017-11-11T14:19:17.150Z,3.13
2017-11-11T14:21:44.702Z,4.10
2017-11-11T14:24:12.262Z,3.63
2017-11-11T14:26:39.702Z,3.20
2017-11-11T14:29:07.174Z,4.40
2017-11-11T14:31:34.721Z,3.10
2017-11-11T14:34:02.282Z,2.73
2017-11-11T14:36:29.730Z,7.00
2017-11-11T14:38:57.198Z,3.80
2017-11-11T14:41:24.642Z,3.13
2017-11-11T14:43:52.106Z,2.40
2017-11-11T14:46:19.550Z,2.77
2017-11-11T14:48:46.998Z,2.50
2017-11-11T14:51:14.444Z,3.73
2017-11-11T14:53:41.928Z,2.67
2017-11-11T14:56:09.390Z,2.20
2017-11-11T14:58:36.830Z,3.50
2017-11-11T15:01:04.270Z,2.90
2017-11-11T15:03:31.751Z,2.93
2017-11-11T15:05:59.173Z,2.30
2017-11-11T15:08:26.627Z,2.63
2017-11-11T15:10:54.066Z,4.50
2017-11-11T15:13:21.571Z,3.33
2017-11-11T15:15:49.144Z,2.70
2017-11-11T15:18:16.612Z,2.27
2017-11-11T15:20:44.060Z,3.10
2017-11-11T15:23:11.875Z,2.63
2017-11-11T15:25:39.432Z,1.90
2017-11-11T15:28:06.869Z,2.73
2017-11-11T15:30:34.311Z,4.57
2017-11-11T15:33:02.548Z,2.23
2017-11-11T15:35:30.102Z,2.17
2017-11-11T15:37:57.550Z,2.70
2017-11-11T15:40:25.010Z,2.37
2017-11-11T15:42:52.469Z,2.13
2017-11-11T15:45:19.921Z,2.20
2017-11-11T15:47:47.367Z,2.57
2017-11-11T15:50:14.834Z,2.60
2017-11-11T15:52:42.346Z,1.77
2017-11-11T15:55:10.139Z,2.23
2017-11-11T15:57:37.628Z,1.70
2017-11-11T16:00:05.070Z,2.30
2017-11-11T16:02:32.535Z,2.20
2017-11-11T16:04:59.990Z,3.30
2017-11-11T16:07:27.427Z,2.33
2017-11-11T16:09:54.885Z,2.07
2017-11-11T16:12:22.345Z,1.83
2017-11-11T16:14:49.903Z,2.57
2017-11-11T16:17:17.479Z,2.10
2017-11-11T16:19:45.021Z,2.60
2017-11-11T16:22:12.531Z,2.30
2017-11-11T16:24:40.026Z,1.73
2017-11-11T16:27:07.586Z,2.07
2017-11-11T16:29:35.149Z,1.53
2017-11-11T16:32:02.589Z,1.60
2017-11-11T16:34:30.058Z,1.80
2017-11-11T16:36:57.501Z,2.40
2017-11-11T16:39:24.967Z,1.70
2017-11-11T16:41:52.523Z,1.63
2017-11-11T16:44:20.043Z,1.87
2017-11-11T16:46:47.542Z,2.93
2017-11-11T16:49:14.986Z,3.17
2017-11-11T16:51:42.453Z,1.90
2017-11-11T16:54:09.873Z,1.77
2017-11-11T16:56:37.353Z,2.07
2017-11-11T16:59:04.785Z,2.07
2017-11-11T17:01:32.272Z,1.70
2017-11-11T17:03:59.724Z,1.57
2017-11-11T17:06:27.188Z,1.57
2017-11-11T17:08:54.640Z,2.00
2017-11-11T17:11:22.091Z,1.57
2017-11-11T17:13:49.525Z,1.57
2017-11-11T17:16:16.949Z,1.53
2017-11-11T17:18:44.458Z,2.03
2017-11-11T17:21:11.899Z,1.50
2017-11-11T17:23:39.341Z,1.30
2017-11-11T17:26:06.778Z,1.50
2017-11-11T17:28:34.226Z,1.40
2017-11-11T17:31:02.430Z,1.93
2017-11-11T17:33:29.882Z,1.80
2017-11-11T17:35:57.315Z,1.70
2017-11-11T17:38:24.791Z,1.80
2017-11-11T17:40:52.274Z,1.43
2017-11-11T17:43:19.722Z,2.00
2017-11-11T17:45:47.171Z,1.50
2017-11-11T17:48:14.610Z,1.70
2017-11-11T17:50:42.054Z,1.80
2017-11-11T17:53:09.574Z,1.63
2017-11-11T17:55:37.183Z,0.93
2017-11-11T17:58:04.626Z,1.20
2017-11-11T18:00:32.079Z,1.50
2017-11-11T18:02:59.570Z,1.70
2017-11-11T18:08:22.227Z,1.60
2017-11-11T18:10:49.686Z,1.37
2017-11-11T18:13:17.341Z,1.47
2017-11-11T18:15:44.804Z,1.50
2017-11-11T18:18:12.247Z,1.40
2017-11-11T18:20:39.707Z,1.40
2017-11-11T18:23:07.154Z,3.20
2017-11-11T18:25:34.594Z,1.33
2017-11-11T18:28:02.079Z,1.53
2017-11-11T18:30:29.534Z,1.50
2017-11-11T18:32:57.094Z,1.50
2017-11-11T18:35:24.542Z,1.30
2017-11-11T18:37:52.202Z,1.30
2017-11-11T18:40:19.715Z,1.50
2017-11-11T18:42:47.910Z,1.77
2017-11-11T18:45:15.358Z,1.07
2017-11-11T18:47:42.845Z,1.23
2017-11-11T18:50:10.407Z,1.07
2017-11-11T18:52:37.870Z,1.37
2017-11-11T18:55:05.339Z,1.20
2017-11-11T18:57:32.779Z,1.00
2017-11-11T19:00:00.219Z,1.20
2017-11-11T19:02:27.670Z,1.10
2017-11-11T19:04:55.126Z,1.27
2017-11-11T19:07:22.566Z,1.20
2017-11-11T19:09:49.999Z,1.20
2017-11-11T19:12:17.440Z,1.40
2017-11-11T19:14:45.740Z,1.30
2017-11-11T19:17:13.234Z,1.30
2017-11-11T19:19:40.682Z,1.30
2017-11-11T19:22:08.118Z,1.20
2017-11-11T19:24:35.563Z,1.50
2017-11-11T19:27:03.004Z,1.20
2017-11-11T19:29:31.233Z,1.50
2017-11-11T19:31:58.759Z,0.93
2017-11-11T19:34:26.268Z,0.90
2017-11-11T19:36:53.705Z,0.80
2017-11-11T19:39:21.184Z,1.00
2017-11-11T19:41:48.754Z,1.20
2017-11-11T19:44:16.986Z,1.20
2017-11-11T19:46:44.470Z,0.80
2017-11-11T19:49:11.910Z,0.97
2017-11-11T19:51:39.450Z,0.90
2017-11-11T19:54:06.922Z,1.37
2017-11-11T19:56:34.470Z,1.20
2017-11-11T19:59:01.911Z,1.03
2017-11-11T20:01:29.378Z,1.27
2017-11-11T20:03:57.803Z,1.20
2017-11-11T20:06:26.024Z,1.37
2017-11-11T20:08:53.457Z,1.10
2017-11-11T20:11:20.911Z,1.30
2017-11-11T20:13:48.394Z,1.50
2017-11-11T20:16:15.847Z,1.27
2017-11-11T20:18:43.317Z,1.80
2017-11-11T20:21:10.793Z,1.00
2017-11-11T20:23:38.260Z,1.60
2017-11-11T20:26:06.490Z,1.00
2017-11-11T20:28:34.045Z,1.20
2017-11-11T20:31:01.541Z,1.20
2017-11-11T20:33:29.763Z,1.03
2017-11-11T20:35:57.236Z,1.20
2017-11-11T20:38:24.714Z,1.27
2017-11-11T20:40:52.189Z,1.00
2017-11-11T20:43:20.412Z,0.97
2017-11-11T20:45:48.008Z,0.80
2017-11-11T20:48:15.446Z,1.07
2017-11-11T20:50:42.893Z,0.90
2017-11-11T20:53:10.348Z,0.77
2017-11-11T20:55:37.820Z,0.87
2017-11-11T20:58:05.286Z,0.80
2017-11-11T21:00:33.560Z,0.80
2017-11-11T21:03:01.816Z,0.83
2017-11-11T21:05:29.385Z,0.90
2017-11-11T21:07:57.610Z,0.87
2017-11-11T21:10:25.062Z,1.30
2017-11-11T21:12:52.531Z,2.20
2017-11-11T21:15:20.036Z,0.90
2017-11-11T21:17:48.238Z,1.00
2017-11-11T21:20:15.692Z,1.03
2017-11-11T21:22:43.124Z,1.10
2017-11-11T21:25:10.953Z,0.90
2017-11-11T21:27:38.514Z,1.03
2017-11-11T21:30:06.167Z,0.80
2017-11-11T21:32:33.751Z,0.73
2017-11-11T21:35:01.987Z,0.80
2017-11-11T21:37:29.480Z,0.70
2017-11-11T21:39:57.054Z,0.70
2017-11-11T21:42:25.304Z,0.80
2017-11-11T21:44:53.485Z,1.33
2017-11-11T21:47:21.699Z,0.80
2017-11-11T21:49:49.146Z,0.90
2017-11-11T21:52:16.627Z,0.90
2017-11-11T21:54:44.075Z,0.63
2017-11-11T21:57:11.520Z,1.27
2017-11-11T21:59:39.202Z,0.70
2017-11-11T22:02:06.658Z,1.10
2017-11-11T22:04:34.111Z,0.70
2017-11-11T22:07:01.665Z,0.73
2017-11-11T22:09:29.218Z,0.70
2017-11-11T22:11:56.714Z,0.70
2017-11-11T22:14:24.227Z,0.73
2017-11-11T22:16:51.765Z,0.80
2017-11-11T22:19:19.290Z,1.10
2017-11-11T22:21:47.612Z,0.97
2017-11-11T22:24:15.117Z,0.60
2017-11-11T22:26:42.734Z,0.70
2017-11-11T22:29:10.243Z,0.73
2017-11-11T22:31:37.738Z,0.77
2017-11-11T22:34:05.263Z,1.57
2017-11-11T22:36:33.497Z,0.70
2017-11-11T22:39:01.029Z,1.37
2017-11-11T22:41:28.500Z,0.80
2017-11-11T22:43:55.966Z,0.70
2017-11-11T22:46:23.603Z,1.00
2017-11-11T22:48:51.113Z,0.80
2017-11-11T22:51:18.628Z,1.07
2017-11-11T22:53:46.098Z,0.90
2017-11-11T22:56:13.608Z,0.80
2017-11-11T22:58:41.149Z,0.77
2017-11-11T23:01:08.748Z,1.43
2017-11-11T23:03:36.209Z,0.73
2017-11-11T23:06:03.767Z,0.83
2017-11-11T23:08:32.043Z,1.27
2017-11-11T23:10:59.659Z,0.80
2017-11-11T23:13:27.905Z,0.60
2017-11-11T23:15:55.441Z,1.20
2017-11-11T23:18:22.894Z,0.87
2017-11-11T23:20:50.342Z,0.90
2017-11-11T23:23:17.830Z,0.60
2017-11-11T23:25:45.386Z,0.80
2017-11-11T23:28:12.823Z,0.87
2017-11-11T23:30:40.266Z,0.90
2017-11-11T23:33:07.722Z,0.87
2017-11-11T23:35:35.170Z,2.60
2017-11-11T23:38:02.641Z,1.10
2017-11-11T23:40:30.096Z,0.83
2017-11-11T23:42:57.538Z,1.30
2017-11-11T23:45:24.978Z,0.70
2017-11-11T23:47:52.465Z,0.70
2017-11-11T23:50:20.662Z,1.30
2017-11-11T23:52:48.186Z,1.10
2017-11-11T23:55:15.650Z,0.70
2017-11-11T23:57:43.107Z,1.03
